Share

McCook Municipal, NE

12:24 AM CDT en Abril 25, 2014 (GMT -0500)
McCook Municipal (KMCK) Alt 2579 ft | 40.20 °N, 100.59 °W | Change Station

Current weather conditions updated 31 minutes ago

Clear
Despejado
51 ° F
Sensación térmica 51 ° F
N
4
Viento Variable Viento desde OSO
Amanecer 6:49 AM
Atardecer 8:31 PM
Luna Creciente menguante

Hoy se prevé un día Mucho más cálido que ayer.

Presión 29.85 pul
Visibilidad 10.0 Millas
Nubes Despejado
Punto de rocío 21 ° F
Humedad 31%
Precipitaciones 0.00 pul
Espesor de la nieve No disponible.
UV 0 de una escala de 16
Polen 10.40 de una escala de 12
Calidad del aire No disponible.
Flu Activity Sporadic
METAR KMCK 250453Z AUTO 25003KT 10SM CLR 11/M06 A2987 RMK AO2 SLP107 T01061061

More Conditions Fewer Conditions

Presión 29.85 pul
Visibilidad 10.0 Millas
Nubes Despejado
Punto de rocío 21 ° F
Humedad 31%
Precipitaciones 0.00 pul
Espesor de la nieve No disponible.
UV 0 de una escala de 16
Polen 10.40 de una escala de 12
Calidad del aire No disponible.
Flu Activity Sporadic
METAR KMCK 250453Z AUTO 25003KT 10SM CLR 11/M06 A2987 RMK AO2 SLP107 T01061061

More Conditions Fewer Conditions

10-Day Weather Forecast

Almanac

Astronomía

Apr. 25, 2014 Salida Puesta
Hora real 6:49 AM CDT 8:31 PM CDT
Crepúsculo civil 6:20 AM CDT 9:00 PM CDT
Crepúsculo náutico 5:45 AM CDT 9:35 PM CDT
Crepúsculo astronómico 5:08 AM CDT 10:13 PM CDT
Luna 4:39 AM CDT 4:55 PM CDT
Horas de luz 14h 39m
Horas de luz
13h 41m
Tomorrow will be 2m 24s longer.
Creciente menguante, 19% of the Moon is Illuminated
Hoy
Creciente menguante
Abr 29
Nueva
May 6
Cuarto creciente
May 14
Luna llena
May 21
Cuarto menguante

Extremos de hoy

Máximos del estado Bajos del estado

Community

  • Deer in evening light
    Deer in evening light
  • Critter
    Critter
  • Jone Runs Falls
    Jone Runs Falls
  • Easter in Shenandoah National Park
    Easter in Shenandoah National Park
  • Sunset at Apalachicola Bay, Florida
    Sunset at Apalachicola Bay, Florida

WunderPhotos

Upload Photos

1,704,861 ¡fotos cargadas!

WunderBlogs® & News

Nearby

Grosos de nieve

Estación Profundido Altura
No tenemos constancia de nieve nueva.

Temperaturas de aguas costeras

Lugar Temperatura
Sin partes meteorológicos de las estaciones

Actividad de terremotos

Ciudad Distance Mag. Tiempo y dato
No hay informes recientes de la actividad sísmica.
Magnitud mínima muestra es 2,5.

Estaciones meteorológicas cercanas

Ubicación de la estación Temp. Punto de rocío Humedad Viento Precip. Alt Actualizado Tipo
McCook, NE 54.3 ° F 26 ° F 33% NO  a  0.0 mph 0.00 pul / hr 2609 ft 12:16 AM CDT Normal
Kastens Farms, Herndon, KS 51.3 ° F 23 ° F 33% SSO  a  0.0 mph 0.00 pul / hr 2967 ft 12:09 AM CDT Normal
5 North, 1.5 West, Trenton, NE 53.0 ° F 30 ° F 42% SO  a  7.0 mph 0.00 pul / hr 2969 ft 12:23 AM CDT Normal

Show More Stations Show Fewer Stations

What do you think?

We're not finished. Please let us know what you like, what you don't like, and what you are still missing.